sensor_id;sensor_type;location;lat;lon;timestamp;P1;durP1;ratioP1;P2;durP2;ratioP2
6825;SDS011;3451;52.476;13.316;2023-07-31T00:01:20;4.03;;;1.60;;
6825;SDS011;3451;52.476;13.316;2023-07-31T00:03:46;2.77;;;1.43;;
6825;SDS011;3451;52.476;13.316;2023-07-31T00:06:13;4.50;;;1.60;;
6825;SDS011;3451;52.476;13.316;2023-07-31T00:08:39;3.20;;;1.83;;
6825;SDS011;3451;52.476;13.316;2023-07-31T00:11:06;2.47;;;1.30;;
6825;SDS011;3451;52.476;13.316;2023-07-31T00:13:32;3.80;;;1.70;;
6825;SDS011;3451;52.476;13.316;2023-07-31T00:15:58;4.33;;;1.50;;
6825;SDS011;3451;52.476;13.316;2023-07-31T00:18:25;4.90;;;1.67;;
6825;SDS011;3451;52.476;13.316;2023-07-31T00:20:51;4.00;;;1.53;;
6825;SDS011;3451;52.476;13.316;2023-07-31T00:23:18;4.30;;;1.97;;
6825;SDS011;3451;52.476;13.316;2023-07-31T00:25:44;3.23;;;1.57;;
6825;SDS011;3451;52.476;13.316;2023-07-31T00:28:11;3.73;;;1.87;;
6825;SDS011;3451;52.476;13.316;2023-07-31T00:30:37;5.57;;;1.50;;
6825;SDS011;3451;52.476;13.316;2023-07-31T00:33:03;4.83;;;1.70;;
6825;SDS011;3451;52.476;13.316;2023-07-31T00:35:30;4.70;;;1.80;;
6825;SDS011;3451;52.476;13.316;2023-07-31T00:37:57;2.70;;;1.73;;
6825;SDS011;3451;52.476;13.316;2023-07-31T00:40:24;3.67;;;1.80;;
6825;SDS011;3451;52.476;13.316;2023-07-31T00:42:50;5.10;;;1.73;;
6825;SDS011;3451;52.476;13.316;2023-07-31T00:45:16;5.37;;;2.13;;
6825;SDS011;3451;52.476;13.316;2023-07-31T00:47:43;3.73;;;1.80;;
6825;SDS011;3451;52.476;13.316;2023-07-31T00:50:09;3.57;;;1.90;;
6825;SDS011;3451;52.476;13.316;2023-07-31T00:52:35;3.43;;;1.80;;
6825;SDS011;3451;52.476;13.316;2023-07-31T00:55:03;3.70;;;2.10;;
6825;SDS011;3451;52.476;13.316;2023-07-31T00:57:30;4.73;;;2.07;;
6825;SDS011;3451;52.476;13.316;2023-07-31T00:59:56;3.60;;;1.70;;
6825;SDS011;3451;52.476;13.316;2023-07-31T01:02:23;3.20;;;1.67;;
6825;SDS011;3451;52.476;13.316;2023-07-31T01:04:49;2.53;;;1.70;;
6825;SDS011;3451;52.476;13.316;2023-07-31T01:12:27;3.63;;;1.80;;
6825;SDS011;3451;52.476;13.316;2023-07-31T01:15:03;5.00;;;2.00;;
6825;SDS011;3451;52.476;13.316;2023-07-31T01:17:29;5.50;;;2.00;;
6825;SDS011;3451;52.476;13.316;2023-07-31T01:19:57;2.70;;;1.73;;
6825;SDS011;3451;52.476;13.316;2023-07-31T01:22:30;4.50;;;2.20;;
6825;SDS011;3451;52.476;13.316;2023-07-31T01:25:16;2.97;;;1.90;;
6825;SDS011;3451;52.476;13.316;2023-07-31T01:27:53;3.83;;;2.23;;
6825;SDS011;3451;52.476;13.316;2023-07-31T01:30:23;3.77;;;2.07;;
6825;SDS011;3451;52.476;13.316;2023-07-31T01:32:51;4.00;;;1.90;;
6825;SDS011;3451;52.476;13.316;2023-07-31T01:35:19;6.33;;;2.33;;
6825;SDS011;3451;52.476;13.316;2023-07-31T01:37:45;5.37;;;2.20;;
6825;SDS011;3451;52.476;13.316;2023-07-31T01:40:12;3.07;;;2.13;;
6825;SDS011;3451;52.476;13.316;2023-07-31T01:42:38;4.47;;;2.20;;
6825;SDS011;3451;52.476;13.316;2023-07-31T01:45:05;3.87;;;2.23;;
6825;SDS011;3451;52.476;13.316;2023-07-31T01:47:31;4.17;;;2.03;;
6825;SDS011;3451;52.476;13.316;2023-07-31T01:49:58;5.80;;;2.13;;
6825;SDS011;3451;52.476;13.316;2023-07-31T01:52:25;6.73;;;1.80;;
6825;SDS011;3451;52.476;13.316;2023-07-31T01:54:51;4.63;;;2.07;;
6825;SDS011;3451;52.476;13.316;2023-07-31T01:57:18;3.67;;;2.20;;
6825;SDS011;3451;52.476;13.316;2023-07-31T01:59:44;4.70;;;1.90;;
6825;SDS011;3451;52.476;13.316;2023-07-31T02:02:11;3.73;;;2.00;;
6825;SDS011;3451;52.476;13.316;2023-07-31T02:04:37;2.60;;;1.90;;
6825;SDS011;3451;52.476;13.316;2023-07-31T02:07:05;3.43;;;1.93;;
6825;SDS011;3451;52.476;13.316;2023-07-31T02:09:31;4.53;;;2.30;;
6825;SDS011;3451;52.476;13.316;2023-07-31T02:11:58;4.63;;;2.03;;
6825;SDS011;3451;52.476;13.316;2023-07-31T02:14:24;4.80;;;2.20;;
6825;SDS011;3451;52.476;13.316;2023-07-31T02:16:51;5.00;;;2.20;;
6825;SDS011;3451;52.476;13.316;2023-07-31T02:19:17;4.40;;;2.20;;
6825;SDS011;3451;52.476;13.316;2023-07-31T02:21:44;4.43;;;1.87;;
6825;SDS011;3451;52.476;13.316;2023-07-31T02:24:10;3.27;;;2.20;;
6825;SDS011;3451;52.476;13.316;2023-07-31T02:26:36;3.83;;;2.20;;
6825;SDS011;3451;52.476;13.316;2023-07-31T02:29:03;4.27;;;2.27;;
6825;SDS011;3451;52.476;13.316;2023-07-31T02:31:29;3.93;;;2.23;;
6825;SDS011;3451;52.476;13.316;2023-07-31T02:33:56;5.23;;;2.20;;
6825;SDS011;3451;52.476;13.316;2023-07-31T02:36:22;5.87;;;2.37;;
6825;SDS011;3451;52.476;13.316;2023-07-31T02:38:49;3.83;;;2.17;;
6825;SDS011;3451;52.476;13.316;2023-07-31T02:41:15;4.23;;;2.40;;
6825;SDS011;3451;52.476;13.316;2023-07-31T02:43:42;5.00;;;2.63;;
6825;SDS011;3451;52.476;13.316;2023-07-31T02:46:08;7.33;;;2.60;;
6825;SDS011;3451;52.476;13.316;2023-07-31T02:48:34;4.90;;;2.60;;
6825;SDS011;3451;52.476;13.316;2023-07-31T02:51:01;7.10;;;3.00;;
6825;SDS011;3451;52.476;13.316;2023-07-31T02:53:27;3.73;;;2.57;;
6825;SDS011;3451;52.476;13.316;2023-07-31T02:55:54;5.73;;;2.93;;
6825;SDS011;3451;52.476;13.316;2023-07-31T02:58:20;4.83;;;2.83;;
6825;SDS011;3451;52.476;13.316;2023-07-31T03:00:46;4.83;;;2.67;;
6825;SDS011;3451;52.476;13.316;2023-07-31T03:06:12;5.37;;;2.63;;
6825;SDS011;3451;52.476;13.316;2023-07-31T03:08:38;5.77;;;2.83;;
6825;SDS011;3451;52.476;13.316;2023-07-31T03:11:05;5.57;;;3.10;;
6825;SDS011;3451;52.476;13.316;2023-07-31T03:13:31;7.50;;;3.10;;
6825;SDS011;3451;52.476;13.316;2023-07-31T03:15:57;6.17;;;3.03;;
6825;SDS011;3451;52.476;13.316;2023-07-31T03:18:24;6.27;;;2.80;;
6825;SDS011;3451;52.476;13.316;2023-07-31T03:20:50;7.43;;;3.13;;
6825;SDS011;3451;52.476;13.316;2023-07-31T03:23:16;6.23;;;3.00;;
6825;SDS011;3451;52.476;13.316;2023-07-31T03:25:59;7.63;;;3.37;;
6825;SDS011;3451;52.476;13.316;2023-07-31T03:28:26;4.90;;;3.00;;
6825;SDS011;3451;52.476;13.316;2023-07-31T03:30:52;7.27;;;3.20;;
6825;SDS011;3451;52.476;13.316;2023-07-31T03:33:18;7.20;;;3.17;;
6825;SDS011;3451;52.476;13.316;2023-07-31T03:35:45;6.20;;;3.13;;
6825;SDS011;3451;52.476;13.316;2023-07-31T03:38:12;7.03;;;3.03;;
6825;SDS011;3451;52.476;13.316;2023-07-31T03:40:38;7.00;;;3.47;;
6825;SDS011;3451;52.476;13.316;2023-07-31T03:43:05;5.00;;;3.20;;
6825;SDS011;3451;52.476;13.316;2023-07-31T03:45:31;6.73;;;3.27;;
6825;SDS011;3451;52.476;13.316;2023-07-31T03:47:57;8.30;;;3.40;;
6825;SDS011;3451;52.476;13.316;2023-07-31T03:50:24;4.73;;;3.30;;
6825;SDS011;3451;52.476;13.316;2023-07-31T03:52:51;5.70;;;3.33;;
6825;SDS011;3451;52.476;13.316;2023-07-31T03:55:18;5.30;;;3.30;;
6825;SDS011;3451;52.476;13.316;2023-07-31T03:57:44;7.27;;;3.60;;
6825;SDS011;3451;52.476;13.316;2023-07-31T04:00:10;4.97;;;3.20;;
6825;SDS011;3451;52.476;13.316;2023-07-31T04:02:37;6.60;;;3.70;;
6825;SDS011;3451;52.476;13.316;2023-07-31T04:05:03;7.50;;;3.37;;
6825;SDS011;3451;52.476;13.316;2023-07-31T04:07:30;5.83;;;3.43;;
6825;SDS011;3451;52.476;13.316;2023-07-31T04:09:57;9.43;;;3.40;;
6825;SDS011;3451;52.476;13.316;2023-07-31T04:12:23;5.37;;;3.30;;
6825;SDS011;3451;52.476;13.316;2023-07-31T04:14:49;5.40;;;3.40;;
6825;SDS011;3451;52.476;13.316;2023-07-31T04:17:17;7.50;;;3.37;;
6825;SDS011;3451;52.476;13.316;2023-07-31T04:19:43;4.73;;;3.13;;
6825;SDS011;3451;52.476;13.316;2023-07-31T04:22:10;5.23;;;3.20;;
6825;SDS011;3451;52.476;13.316;2023-07-31T04:24:36;12.00;;;3.17;;
6825;SDS011;3451;52.476;13.316;2023-07-31T04:27:02;6.13;;;3.23;;
6825;SDS011;3451;52.476;13.316;2023-07-31T04:29:29;6.17;;;3.20;;
6825;SDS011;3451;52.476;13.316;2023-07-31T04:31:55;9.37;;;3.50;;
6825;SDS011;3451;52.476;13.316;2023-07-31T04:34:21;5.97;;;3.40;;
6825;SDS011;3451;52.476;13.316;2023-07-31T04:36:48;5.93;;;3.40;;
6825;SDS011;3451;52.476;13.316;2023-07-31T04:39:14;8.07;;;3.43;;
6825;SDS011;3451;52.476;13.316;2023-07-31T04:41:40;9.43;;;3.00;;
6825;SDS011;3451;52.476;13.316;2023-07-31T04:44:07;5.80;;;3.13;;
6825;SDS011;3451;52.476;13.316;2023-07-31T04:46:33;4.13;;;3.20;;
6825;SDS011;3451;52.476;13.316;2023-07-31T04:49:00;6.10;;;3.20;;
6825;SDS011;3451;52.476;13.316;2023-07-31T04:51:26;6.47;;;3.30;;
6825;SDS011;3451;52.476;13.316;2023-07-31T04:53:52;7.60;;;3.50;;
6825;SDS011;3451;52.476;13.316;2023-07-31T04:56:19;5.40;;;3.23;;
6825;SDS011;3451;52.476;13.316;2023-07-31T04:58:45;5.57;;;3.10;;
6825;SDS011;3451;52.476;13.316;2023-07-31T05:01:11;8.37;;;3.13;;
6825;SDS011;3451;52.476;13.316;2023-07-31T05:03:38;9.67;;;3.93;;
6825;SDS011;3451;52.476;13.316;2023-07-31T05:06:05;5.67;;;2.80;;
6825;SDS011;3451;52.476;13.316;2023-07-31T05:08:31;4.63;;;3.20;;
6825;SDS011;3451;52.476;13.316;2023-07-31T05:10:58;7.07;;;3.50;;
6825;SDS011;3451;52.476;13.316;2023-07-31T05:13:24;7.27;;;3.00;;
6825;SDS011;3451;52.476;13.316;2023-07-31T05:15:50;6.60;;;2.83;;
6825;SDS011;3451;52.476;13.316;2023-07-31T05:18:17;4.87;;;3.13;;
6825;SDS011;3451;52.476;13.316;2023-07-31T05:20:43;9.47;;;3.33;;
6825;SDS011;3451;52.476;13.316;2023-07-31T05:23:09;7.10;;;3.30;;
6825;SDS011;3451;52.476;13.316;2023-07-31T05:25:36;6.23;;;3.30;;
6825;SDS011;3451;52.476;13.316;2023-07-31T05:28:02;6.30;;;3.47;;
6825;SDS011;3451;52.476;13.316;2023-07-31T05:30:32;6.87;;;3.17;;
6825;SDS011;3451;52.476;13.316;2023-07-31T05:32:58;4.30;;;2.80;;
6825;SDS011;3451;52.476;13.316;2023-07-31T05:35:24;5.93;;;2.70;;
6825;SDS011;3451;52.476;13.316;2023-07-31T05:37:51;8.73;;;3.03;;
6825;SDS011;3451;52.476;13.316;2023-07-31T05:40:17;7.23;;;2.77;;
6825;SDS011;3451;52.476;13.316;2023-07-31T05:42:43;5.20;;;2.90;;
6825;SDS011;3451;52.476;13.316;2023-07-31T05:45:10;5.67;;;2.70;;
6825;SDS011;3451;52.476;13.316;2023-07-31T05:47:36;5.00;;;2.80;;
6825;SDS011;3451;52.476;13.316;2023-07-31T05:50:03;7.10;;;2.87;;
6825;SDS011;3451;52.476;13.316;2023-07-31T05:52:29;7.77;;;2.47;;
6825;SDS011;3451;52.476;13.316;2023-07-31T05:54:56;5.90;;;2.80;;
6825;SDS011;3451;52.476;13.316;2023-07-31T05:57:22;3.33;;;2.80;;
6825;SDS011;3451;52.476;13.316;2023-07-31T05:59:49;3.43;;;2.53;;
6825;SDS011;3451;52.476;13.316;2023-07-31T06:02:15;7.00;;;2.90;;
6825;SDS011;3451;52.476;13.316;2023-07-31T06:04:41;7.87;;;3.00;;
6825;SDS011;3451;52.476;13.316;2023-07-31T06:07:08;6.27;;;2.60;;
6825;SDS011;3451;52.476;13.316;2023-07-31T06:09:34;5.57;;;2.47;;
6825;SDS011;3451;52.476;13.316;2023-07-31T06:12:01;6.73;;;2.53;;
6825;SDS011;3451;52.476;13.316;2023-07-31T06:14:27;7.33;;;2.73;;
6825;SDS011;3451;52.476;13.316;2023-07-31T06:16:53;4.43;;;2.50;;
6825;SDS011;3451;52.476;13.316;2023-07-31T06:19:20;7.87;;;2.93;;
6825;SDS011;3451;52.476;13.316;2023-07-31T06:21:46;4.87;;;2.73;;
6825;SDS011;3451;52.476;13.316;2023-07-31T06:24:12;5.63;;;2.70;;
6825;SDS011;3451;52.476;13.316;2023-07-31T06:26:39;4.07;;;2.53;;
6825;SDS011;3451;52.476;13.316;2023-07-31T06:29:06;4.83;;;2.50;;
6825;SDS011;3451;52.476;13.316;2023-07-31T06:31:33;9.50;;;2.60;;
6825;SDS011;3451;52.476;13.316;2023-07-31T06:33:59;5.13;;;2.47;;
6825;SDS011;3451;52.476;13.316;2023-07-31T06:36:25;5.60;;;2.83;;
6825;SDS011;3451;52.476;13.316;2023-07-31T06:38:52;7.70;;;3.40;;
6825;SDS011;3451;52.476;13.316;2023-07-31T06:41:18;7.93;;;2.73;;
6825;SDS011;3451;52.476;13.316;2023-07-31T06:43:45;5.17;;;2.70;;
6825;SDS011;3451;52.476;13.316;2023-07-31T06:46:11;6.50;;;2.20;;
6825;SDS011;3451;52.476;13.316;2023-07-31T06:48:37;6.67;;;2.43;;
6825;SDS011;3451;52.476;13.316;2023-07-31T06:51:04;5.23;;;2.10;;
6825;SDS011;3451;52.476;13.316;2023-07-31T06:53:30;5.13;;;2.13;;
6825;SDS011;3451;52.476;13.316;2023-07-31T06:55:56;5.37;;;2.37;;
6825;SDS011;3451;52.476;13.316;2023-07-31T06:58:23;5.30;;;2.87;;
6825;SDS011;3451;52.476;13.316;2023-07-31T07:00:49;3.80;;;2.30;;
6825;SDS011;3451;52.476;13.316;2023-07-31T07:03:18;4.97;;;2.47;;
6825;SDS011;3451;52.476;13.316;2023-07-31T07:05:44;5.77;;;2.10;;
6825;SDS011;3451;52.476;13.316;2023-07-31T07:08:11;4.77;;;2.40;;
6825;SDS011;3451;52.476;13.316;2023-07-31T07:10:37;4.60;;;2.40;;
6825;SDS011;3451;52.476;13.316;2023-07-31T07:13:04;4.57;;;2.00;;
6825;SDS011;3451;52.476;13.316;2023-07-31T07:15:30;4.50;;;2.40;;
6825;SDS011;3451;52.476;13.316;2023-07-31T07:17:57;5.17;;;2.27;;
6825;SDS011;3451;52.476;13.316;2023-07-31T07:20:23;4.00;;;2.13;;
6825;SDS011;3451;52.476;13.316;2023-07-31T07:22:50;4.73;;;2.20;;
6825;SDS011;3451;52.476;13.316;2023-07-31T07:25:16;5.63;;;2.27;;
6825;SDS011;3451;52.476;13.316;2023-07-31T07:27:43;7.87;;;2.30;;
6825;SDS011;3451;52.476;13.316;2023-07-31T07:30:09;6.67;;;2.60;;
6825;SDS011;3451;52.476;13.316;2023-07-31T07:32:36;4.07;;;2.67;;
6825;SDS011;3451;52.476;13.316;2023-07-31T07:35:02;5.30;;;2.53;;
6825;SDS011;3451;52.476;13.316;2023-07-31T07:37:29;5.07;;;2.70;;
6825;SDS011;3451;52.476;13.316;2023-07-31T07:39:55;6.20;;;2.20;;
6825;SDS011;3451;52.476;13.316;2023-07-31T07:42:21;5.57;;;2.40;;
6825;SDS011;3451;52.476;13.316;2023-07-31T07:44:48;5.70;;;2.63;;
6825;SDS011;3451;52.476;13.316;2023-07-31T07:47:14;8.80;;;2.73;;
6825;SDS011;3451;52.476;13.316;2023-07-31T07:49:40;4.23;;;2.47;;
6825;SDS011;3451;52.476;13.316;2023-07-31T07:52:07;3.67;;;2.10;;
6825;SDS011;3451;52.476;13.316;2023-07-31T07:54:33;3.43;;;2.20;;
6825;SDS011;3451;52.476;13.316;2023-07-31T07:57:00;5.53;;;2.10;;
6825;SDS011;3451;52.476;13.316;2023-07-31T07:59:27;3.07;;;2.10;;
6825;SDS011;3451;52.476;13.316;2023-07-31T08:01:53;2.63;;;1.90;;
6825;SDS011;3451;52.476;13.316;2023-07-31T08:04:19;4.53;;;2.10;;
6825;SDS011;3451;52.476;13.316;2023-07-31T08:06:46;3.77;;;1.80;;
6825;SDS011;3451;52.476;13.316;2023-07-31T08:09:12;3.40;;;2.00;;
6825;SDS011;3451;52.476;13.316;2023-07-31T08:11:38;3.90;;;1.93;;
6825;SDS011;3451;52.476;13.316;2023-07-31T08:14:05;2.40;;;1.60;;
6825;SDS011;3451;52.476;13.316;2023-07-31T08:16:31;4.47;;;1.73;;
6825;SDS011;3451;52.476;13.316;2023-07-31T08:18:58;5.43;;;2.20;;
6825;SDS011;3451;52.476;13.316;2023-07-31T08:21:24;3.37;;;1.80;;
6825;SDS011;3451;52.476;13.316;2023-07-31T08:23:50;3.73;;;1.87;;
6825;SDS011;3451;52.476;13.316;2023-07-31T08:26:17;5.67;;;2.17;;
6825;SDS011;3451;52.476;13.316;2023-07-31T08:28:44;3.80;;;2.17;;
6825;SDS011;3451;52.476;13.316;2023-07-31T08:31:10;3.90;;;2.00;;
6825;SDS011;3451;52.476;13.316;2023-07-31T08:33:37;3.77;;;2.00;;
6825;SDS011;3451;52.476;13.316;2023-07-31T08:36:04;6.37;;;2.30;;
6825;SDS011;3451;52.476;13.316;2023-07-31T08:38:31;4.37;;;2.23;;
6825;SDS011;3451;52.476;13.316;2023-07-31T08:40:57;5.10;;;2.40;;
6825;SDS011;3451;52.476;13.316;2023-07-31T08:43:27;3.73;;;2.03;;
6825;SDS011;3451;52.476;13.316;2023-07-31T08:45:54;5.43;;;2.10;;
6825;SDS011;3451;52.476;13.316;2023-07-31T08:48:21;3.20;;;1.97;;
6825;SDS011;3451;52.476;13.316;2023-07-31T08:50:47;2.10;;;1.63;;
6825;SDS011;3451;52.476;13.316;2023-07-31T08:53:13;3.17;;;1.83;;
6825;SDS011;3451;52.476;13.316;2023-07-31T08:55:40;4.13;;;1.70;;
6825;SDS011;3451;52.476;13.316;2023-07-31T08:58:06;4.23;;;2.10;;
6825;SDS011;3451;52.476;13.316;2023-07-31T09:00:33;4.10;;;2.00;;
6825;SDS011;3451;52.476;13.316;2023-07-31T09:03:00;3.17;;;1.80;;
6825;SDS011;3451;52.476;13.316;2023-07-31T09:05:29;3.03;;;2.27;;
6825;SDS011;3451;52.476;13.316;2023-07-31T09:07:56;3.97;;;2.07;;
6825;SDS011;3451;52.476;13.316;2023-07-31T09:10:23;2.93;;;1.70;;
6825;SDS011;3451;52.476;13.316;2023-07-31T09:12:53;2.50;;;1.50;;
6825;SDS011;3451;52.476;13.316;2023-07-31T09:15:19;3.73;;;1.60;;
6825;SDS011;3451;52.476;13.316;2023-07-31T09:18:02;3.33;;;1.40;;
6825;SDS011;3451;52.476;13.316;2023-07-31T09:20:29;3.10;;;1.40;;
6825;SDS011;3451;52.476;13.316;2023-07-31T09:22:55;2.20;;;1.10;;
6825;SDS011;3451;52.476;13.316;2023-07-31T09:25:25;3.03;;;1.23;;
6825;SDS011;3451;52.476;13.316;2023-07-31T09:28:03;1.37;;;1.00;;
6825;SDS011;3451;52.476;13.316;2023-07-31T09:30:30;1.43;;;0.83;;
6825;SDS011;3451;52.476;13.316;2023-07-31T09:33:04;1.93;;;1.30;;
6825;SDS011;3451;52.476;13.316;2023-07-31T09:35:34;2.40;;;1.30;;
6825;SDS011;3451;52.476;13.316;2023-07-31T09:38:03;2.43;;;1.10;;
6825;SDS011;3451;52.476;13.316;2023-07-31T09:40:30;2.90;;;1.30;;
6825;SDS011;3451;52.476;13.316;2023-07-31T09:42:58;2.13;;;1.33;;
6825;SDS011;3451;52.476;13.316;2023-07-31T09:45:24;1.70;;;1.10;;
6825;SDS011;3451;52.476;13.316;2023-07-31T09:48:08;1.17;;;0.93;;
6825;SDS011;3451;52.476;13.316;2023-07-31T09:50:39;4.20;;;1.37;;
6825;SDS011;3451;52.476;13.316;2023-07-31T09:53:06;2.93;;;1.20;;
6825;SDS011;3451;52.476;13.316;2023-07-31T09:55:32;2.27;;;1.33;;
6825;SDS011;3451;52.476;13.316;2023-07-31T09:57:59;4.93;;;1.53;;
6825;SDS011;3451;52.476;13.316;2023-07-31T10:00:25;3.03;;;1.63;;
6825;SDS011;3451;52.476;13.316;2023-07-31T10:02:54;4.27;;;1.90;;
6825;SDS011;3451;52.476;13.316;2023-07-31T10:05:24;3.33;;;1.57;;
6825;SDS011;3451;52.476;13.316;2023-07-31T10:07:54;3.30;;;1.90;;
6825;SDS011;3451;52.476;13.316;2023-07-31T10:10:22;4.60;;;2.13;;
6825;SDS011;3451;52.476;13.316;2023-07-31T10:12:48;5.37;;;2.17;;
6825;SDS011;3451;52.476;13.316;2023-07-31T10:15:16;4.83;;;2.30;;
6825;SDS011;3451;52.476;13.316;2023-07-31T10:17:42;4.80;;;2.20;;
6825;SDS011;3451;52.476;13.316;2023-07-31T10:20:09;3.93;;;2.27;;
6825;SDS011;3451;52.476;13.316;2023-07-31T10:22:36;7.30;;;2.53;;
6825;SDS011;3451;52.476;13.316;2023-07-31T10:25:02;6.07;;;3.07;;
6825;SDS011;3451;52.476;13.316;2023-07-31T10:27:29;4.23;;;2.80;;
6825;SDS011;3451;52.476;13.316;2023-07-31T10:29:56;5.50;;;2.80;;
6825;SDS011;3451;52.476;13.316;2023-07-31T10:32:24;5.47;;;2.93;;
6825;SDS011;3451;52.476;13.316;2023-07-31T10:34:51;4.50;;;2.50;;
6825;SDS011;3451;52.476;13.316;2023-07-31T10:42:45;5.10;;;3.00;;
6825;SDS011;3451;52.476;13.316;2023-07-31T10:45:13;5.70;;;2.70;;
6825;SDS011;3451;52.476;13.316;2023-07-31T10:47:44;5.60;;;2.97;;
6825;SDS011;3451;52.476;13.316;2023-07-31T10:50:18;7.70;;;2.90;;
6825;SDS011;3451;52.476;13.316;2023-07-31T10:52:49;4.73;;;3.00;;
6825;SDS011;3451;52.476;13.316;2023-07-31T10:55:16;5.87;;;2.53;;
6825;SDS011;3451;52.476;13.316;2023-07-31T10:57:48;9.50;;;3.40;;
6825;SDS011;3451;52.476;13.316;2023-07-31T11:00:21;7.10;;;3.07;;
6825;SDS011;3451;52.476;13.316;2023-07-31T11:02:58;6.93;;;3.13;;
6825;SDS011;3451;52.476;13.316;2023-07-31T11:08:14;6.43;;;3.10;;
6825;SDS011;3451;52.476;13.316;2023-07-31T11:10:40;5.63;;;2.77;;
6825;SDS011;3451;52.476;13.316;2023-07-31T11:13:07;6.40;;;3.30;;
6825;SDS011;3451;52.476;13.316;2023-07-31T11:15:33;4.27;;;2.87;;
6825;SDS011;3451;52.476;13.316;2023-07-31T11:18:00;4.80;;;2.70;;
6825;SDS011;3451;52.476;13.316;2023-07-31T11:20:32;7.20;;;3.20;;
6825;SDS011;3451;52.476;13.316;2023-07-31T11:23:00;7.00;;;2.90;;
6825;SDS011;3451;52.476;13.316;2023-07-31T11:25:28;5.50;;;3.00;;
6825;SDS011;3451;52.476;13.316;2023-07-31T11:27:54;6.03;;;2.97;;
6825;SDS011;3451;52.476;13.316;2023-07-31T11:30:22;5.23;;;2.77;;
6825;SDS011;3451;52.476;13.316;2023-07-31T11:32:49;5.07;;;3.03;;
6825;SDS011;3451;52.476;13.316;2023-07-31T11:35:16;7.70;;;2.60;;
6825;SDS011;3451;52.476;13.316;2023-07-31T11:37:43;5.10;;;2.83;;
6825;SDS011;3451;52.476;13.316;2023-07-31T11:40:10;5.30;;;2.70;;
6825;SDS011;3451;52.476;13.316;2023-07-31T11:42:36;4.57;;;2.53;;
6825;SDS011;3451;52.476;13.316;2023-07-31T11:45:03;4.47;;;2.63;;
6825;SDS011;3451;52.476;13.316;2023-07-31T11:47:32;5.10;;;2.80;;
6825;SDS011;3451;52.476;13.316;2023-07-31T11:50:01;4.50;;;2.60;;
6825;SDS011;3451;52.476;13.316;2023-07-31T11:52:28;5.20;;;2.33;;
6825;SDS011;3451;52.476;13.316;2023-07-31T11:54:56;4.70;;;2.80;;
6825;SDS011;3451;52.476;13.316;2023-07-31T11:57:23;3.53;;;2.60;;
6825;SDS011;3451;52.476;13.316;2023-07-31T11:59:49;6.43;;;3.03;;
6825;SDS011;3451;52.476;13.316;2023-07-31T12:02:16;4.50;;;2.87;;
6825;SDS011;3451;52.476;13.316;2023-07-31T12:04:43;7.23;;;2.57;;
6825;SDS011;3451;52.476;13.316;2023-07-31T12:07:09;7.23;;;2.40;;
6825;SDS011;3451;52.476;13.316;2023-07-31T12:09:35;4.00;;;2.40;;
6825;SDS011;3451;52.476;13.316;2023-07-31T12:12:02;5.43;;;2.73;;
6825;SDS011;3451;52.476;13.316;2023-07-31T12:14:33;5.57;;;2.60;;
6825;SDS011;3451;52.476;13.316;2023-07-31T12:17:01;6.40;;;2.57;;
6825;SDS011;3451;52.476;13.316;2023-07-31T12:19:30;4.73;;;2.70;;
6825;SDS011;3451;52.476;13.316;2023-07-31T12:21:58;4.33;;;2.57;;
6825;SDS011;3451;52.476;13.316;2023-07-31T12:24:25;3.20;;;2.20;;
6825;SDS011;3451;52.476;13.316;2023-07-31T12:26:52;4.60;;;2.13;;
6825;SDS011;3451;52.476;13.316;2023-07-31T12:29:18;5.33;;;2.50;;
6825;SDS011;3451;52.476;13.316;2023-07-31T12:31:45;5.57;;;2.90;;
6825;SDS011;3451;52.476;13.316;2023-07-31T12:34:17;5.67;;;2.43;;
6825;SDS011;3451;52.476;13.316;2023-07-31T12:36:44;4.93;;;2.47;;
6825;SDS011;3451;52.476;13.316;2023-07-31T12:39:12;5.77;;;2.70;;
6825;SDS011;3451;52.476;13.316;2023-07-31T12:41:38;4.87;;;2.90;;
6825;SDS011;3451;52.476;13.316;2023-07-31T12:44:04;5.60;;;2.43;;
6825;SDS011;3451;52.476;13.316;2023-07-31T12:46:31;3.87;;;2.30;;
6825;SDS011;3451;52.476;13.316;2023-07-31T12:48:57;5.03;;;2.77;;
6825;SDS011;3451;52.476;13.316;2023-07-31T12:51:24;3.93;;;2.40;;
6825;SDS011;3451;52.476;13.316;2023-07-31T12:53:53;7.00;;;2.47;;
6825;SDS011;3451;52.476;13.316;2023-07-31T12:56:19;3.40;;;2.33;;
6825;SDS011;3451;52.476;13.316;2023-07-31T12:58:45;3.40;;;2.10;;
6825;SDS011;3451;52.476;13.316;2023-07-31T13:01:12;4.13;;;1.90;;
6825;SDS011;3451;52.476;13.316;2023-07-31T13:03:38;3.80;;;2.03;;
6825;SDS011;3451;52.476;13.316;2023-07-31T13:06:05;4.50;;;1.77;;
6825;SDS011;3451;52.476;13.316;2023-07-31T13:08:31;3.73;;;2.20;;
6825;SDS011;3451;52.476;13.316;2023-07-31T13:10:58;5.60;;;2.10;;
6825;SDS011;3451;52.476;13.316;2023-07-31T13:13:24;2.73;;;1.57;;
6825;SDS011;3451;52.476;13.316;2023-07-31T13:15:51;3.47;;;2.33;;
6825;SDS011;3451;52.476;13.316;2023-07-31T13:18:17;3.17;;;2.00;;
6825;SDS011;3451;52.476;13.316;2023-07-31T13:20:43;6.23;;;1.93;;
6825;SDS011;3451;52.476;13.316;2023-07-31T13:23:10;5.30;;;2.23;;
6825;SDS011;3451;52.476;13.316;2023-07-31T13:25:36;4.60;;;2.07;;
6825;SDS011;3451;52.476;13.316;2023-07-31T13:28:03;5.57;;;2.33;;
6825;SDS011;3451;52.476;13.316;2023-07-31T13:30:29;4.73;;;2.33;;
6825;SDS011;3451;52.476;13.316;2023-07-31T13:32:56;6.13;;;2.10;;
6825;SDS011;3451;52.476;13.316;2023-07-31T13:35:22;3.97;;;2.23;;
6825;SDS011;3451;52.476;13.316;2023-07-31T13:37:48;3.37;;;2.37;;
6825;SDS011;3451;52.476;13.316;2023-07-31T13:40:15;5.37;;;2.30;;
6825;SDS011;3451;52.476;13.316;2023-07-31T13:42:41;3.70;;;2.30;;
6825;SDS011;3451;52.476;13.316;2023-07-31T13:45:08;5.17;;;2.80;;
6825;SDS011;3451;52.476;13.316;2023-07-31T13:47:34;4.53;;;2.43;;
6825;SDS011;3451;52.476;13.316;2023-07-31T13:50:01;4.93;;;2.70;;
6825;SDS011;3451;52.476;13.316;2023-07-31T13:52:27;5.90;;;2.40;;
6825;SDS011;3451;52.476;13.316;2023-07-31T13:54:53;6.40;;;2.83;;
6825;SDS011;3451;52.476;13.316;2023-07-31T13:57:20;8.03;;;2.87;;
6825;SDS011;3451;52.476;13.316;2023-07-31T13:59:46;7.50;;;2.73;;
6825;SDS011;3451;52.476;13.316;2023-07-31T14:02:12;4.43;;;2.70;;
6825;SDS011;3451;52.476;13.316;2023-07-31T14:04:40;5.03;;;2.77;;
6825;SDS011;3451;52.476;13.316;2023-07-31T14:07:07;5.43;;;2.80;;
6825;SDS011;3451;52.476;13.316;2023-07-31T14:09:33;5.33;;;2.73;;
6825;SDS011;3451;52.476;13.316;2023-07-31T14:11:59;7.73;;;2.63;;
6825;SDS011;3451;52.476;13.316;2023-07-31T14:14:26;6.87;;;2.50;;
6825;SDS011;3451;52.476;13.316;2023-07-31T14:16:52;4.67;;;2.70;;
6825;SDS011;3451;52.476;13.316;2023-07-31T14:19:19;4.30;;;2.50;;
6825;SDS011;3451;52.476;13.316;2023-07-31T14:21:46;4.20;;;2.50;;
6825;SDS011;3451;52.476;13.316;2023-07-31T14:24:26;4.90;;;2.93;;
6825;SDS011;3451;52.476;13.316;2023-07-31T14:26:52;5.53;;;2.20;;
6825;SDS011;3451;52.476;13.316;2023-07-31T14:29:19;3.33;;;2.40;;
6825;SDS011;3451;52.476;13.316;2023-07-31T14:31:45;4.20;;;2.50;;
6825;SDS011;3451;52.476;13.316;2023-07-31T14:34:11;5.23;;;2.47;;
6825;SDS011;3451;52.476;13.316;2023-07-31T14:36:38;3.57;;;2.50;;
6825;SDS011;3451;52.476;13.316;2023-07-31T14:39:04;4.13;;;2.80;;
6825;SDS011;3451;52.476;13.316;2023-07-31T14:41:31;4.73;;;2.87;;
6825;SDS011;3451;52.476;13.316;2023-07-31T14:43:57;3.70;;;2.40;;
6825;SDS011;3451;52.476;13.316;2023-07-31T14:46:23;5.17;;;2.60;;
6825;SDS011;3451;52.476;13.316;2023-07-31T14:48:50;3.17;;;2.70;;
6825;SDS011;3451;52.476;13.316;2023-07-31T14:51:16;3.00;;;2.40;;
6825;SDS011;3451;52.476;13.316;2023-07-31T14:53:43;5.03;;;2.60;;
6825;SDS011;3451;52.476;13.316;2023-07-31T14:56:10;3.57;;;2.40;;
6825;SDS011;3451;52.476;13.316;2023-07-31T14:58:37;4.90;;;2.80;;
6825;SDS011;3451;52.476;13.316;2023-07-31T15:01:03;3.43;;;2.30;;
6825;SDS011;3451;52.476;13.316;2023-07-31T15:03:29;6.23;;;2.40;;
6825;SDS011;3451;52.476;13.316;2023-07-31T15:05:56;6.70;;;2.50;;
6825;SDS011;3451;52.476;13.316;2023-07-31T15:08:22;5.43;;;2.50;;
6825;SDS011;3451;52.476;13.316;2023-07-31T15:10:49;3.63;;;2.33;;
6825;SDS011;3451;52.476;13.316;2023-07-31T15:13:15;4.30;;;2.60;;
6825;SDS011;3451;52.476;13.316;2023-07-31T15:15:41;3.73;;;2.30;;